Time;durP1;ratioP1;P1;durP2;ratioP2;P2;SDS_P1;SDS_P2;PMS_P1;PMS_P2;Temp;Humidity;BMP_temperature;BMP_pressure;BME280_temperature;BME280_humidity;BME280_pressure;Samples;Min_cycle;Max_cycle;Signal;HPM_P1;HPM_P2
2024/02/16 08:29:30;;;;;;;3.17;1.50;;;14.40;99.90;;;;;;4935022;23;20260;-81
2024/02/16 08:31:57;;;;;;;3.37;1.20;;;14.40;99.90;;;;;;4935865;29;20291;-81
2024/02/16 08:34:26;;;;;;;5.47;1.67;;;14.20;99.90;;;;;;4933293;29;20201;-82
2024/02/16 08:36:52;;;;;;;3.87;1.20;;;14.20;99.90;;;;;;4917049;29;20201;-81
2024/02/16 08:39:20;;;;;;;2.70;1.20;;;14.10;99.90;;;;;;4916806;29;20215;-82
2024/02/16 08:41:48;;;;;;;2.17;1.07;;;14.00;99.90;;;;;;4916915;29;20214;-81
2024/02/16 08:44:15;;;;;;;4.27;1.40;;;13.90;99.90;;;;;;4916598;29;20237;-81
2024/02/16 08:46:43;;;;;;;7.70;1.50;;;13.90;99.90;;;;;;4916889;29;20220;-81
2024/02/16 08:49:10;;;;;;;3.47;1.27;;;13.90;99.90;;;;;;4917352;29;20304;-81
2024/02/16 08:51:37;;;;;;;3.97;1.37;;;13.90;99.90;;;;;;4916729;29;20216;-80
2024/02/16 08:54:04;;;;;;;2.27;1.07;;;13.90;99.90;;;;;;4916864;29;20316;-81
2024/02/16 08:56:31;;;;;;;4.00;1.40;;;14.00;99.90;;;;;;4916881;29;20593;-80
2024/02/16 08:58:58;;;;;;;2.70;1.60;;;13.90;99.90;;;;;;4916863;29;20691;-81
2024/02/16 09:01:31;;;;;;;4.07;1.30;;;14.00;99.90;;;;;;4917063;29;20308;-81
2024/02/16 09:04:00;;;;;;;2.63;1.33;;;14.00;99.90;;;;;;4916943;29;20250;-81
2024/02/16 09:06:27;;;;;;;4.20;1.60;;;14.00;99.90;;;;;;4923518;29;20212;-81
2024/02/16 09:08:55;;;;;;;4.27;1.20;;;14.10;99.90;;;;;;4933618;29;20245;-83
2024/02/16 09:11:21;;;;;;;3.63;1.37;;;14.10;99.90;;;;;;4927871;29;20281;-83
2024/02/16 09:13:49;;;;;;;4.83;1.50;;;14.10;99.90;;;;;;4930482;29;20257;-82
2024/02/16 09:16:16;;;;;;;3.37;1.47;;;14.20;99.90;;;;;;4922545;29;20234;-83
2024/02/16 09:18:43;;;;;;;3.40;1.93;;;14.30;99.90;;;;;;4919995;29;20212;-83
2024/02/16 09:21:11;;;;;;;4.60;1.33;;;14.40;99.90;;;;;;4918373;29;20649;-83
2024/02/16 09:23:38;;;;;;;3.90;1.37;;;14.40;99.90;;;;;;4918587;29;20759;-82
2024/02/16 09:26:05;;;;;;;4.80;1.67;;;14.40;99.90;;;;;;4918069;29;20240;-82
2024/02/16 09:28:33;;;;;;;4.07;1.50;;;14.30;99.90;;;;;;4917735;29;20281;-83
2024/02/16 09:30:59;;;;;;;4.37;1.47;;;14.30;99.90;;;;;;4917990;29;20287;-83
2024/02/16 09:33:28;;;;;;;4.27;1.33;;;14.30;99.90;;;;;;4920752;29;20328;-83
2024/02/16 09:35:54;;;;;;;6.23;1.97;;;14.30;99.90;;;;;;4921048;29;20257;-83
2024/02/16 09:38:23;;;;;;;3.70;1.40;;;14.30;99.90;;;;;;4921046;29;20316;-83
2024/02/16 09:40:51;;;;;;;3.97;1.43;;;14.20;99.90;;;;;;4921257;29;20300;-83
2024/02/16 09:43:27;;;;;;;4.33;1.67;;;14.20;99.90;;;;;;4919590;29;20572;-83
2024/02/16 09:45:55;;;;;;;4.97;1.77;;;14.20;99.90;;;;;;4920992;29;20584;-83
2024/02/16 09:48:22;;;;;;;3.07;1.30;;;14.30;99.90;;;;;;4920828;29;20232;-83
2024/02/16 09:50:51;;;;;;;4.43;1.53;;;14.40;99.90;;;;;;4920410;29;20214;-83
2024/02/16 09:53:21;;;;;;;3.97;1.63;;;14.50;99.90;;;;;;4920818;29;20325;-83
2024/02/16 09:55:50;;;;;;;6.73;1.80;;;14.40;99.90;;;;;;4920801;29;20641;-83
2024/02/16 09:58:18;;;;;;;6.23;2.60;;;14.40;99.90;;;;;;4920445;29;20210;-83
2024/02/16 10:00:50;;;;;;;4.23;1.60;;;14.50;99.90;;;;;;4920790;29;20272;-83
2024/02/16 10:03:27;;;;;;;4.27;1.83;;;14.40;99.90;;;;;;4920311;29;20220;-82
2024/02/16 10:05:54;;;;;;;5.30;1.90;;;14.40;99.90;;;;;;4921025;29;20704;-84
2024/02/16 10:08:21;;;;;;;3.97;1.90;;;14.30;99.90;;;;;;4920724;29;20568;-83
2024/02/16 10:10:49;;;;;;;5.73;1.63;;;14.40;99.90;;;;;;4923966;29;20646;-83
2024/02/16 10:13:16;;;;;;;5.67;1.80;;;14.50;99.90;;;;;;4920228;29;20649;-82
2024/02/16 10:15:44;;;;;;;6.60;2.40;;;14.50;99.90;;;;;;4920198;29;20276;-83
2024/02/16 10:18:11;;;;;;;3.20;1.70;;;14.60;99.90;;;;;;4921113;29;20225;-83
2024/02/16 10:20:39;;;;;;;6.73;1.97;;;14.50;99.90;;;;;;4920586;29;20209;-82
2024/02/16 10:23:07;;;;;;;4.63;2.10;;;14.50;99.90;;;;;;4921274;29;20209;-83
2024/02/16 10:25:35;;;;;;;4.70;1.87;;;14.60;99.90;;;;;;4921121;29;20360;-83
2024/02/16 10:28:06;;;;;;;5.00;1.80;;;14.70;99.90;;;;;;4920444;29;20313;-83
2024/02/16 10:30:38;;;;;;;4.30;1.70;;;14.80;99.90;;;;;;4920198;29;20224;-83
2024/02/16 10:33:05;;;;;;;5.23;2.27;;;14.80;99.90;;;;;;4919210;29;20242;-83
2024/02/16 10:35:35;;;;;;;5.07;1.97;;;14.80;99.90;;;;;;4920054;29;20316;-82
2024/02/16 10:38:04;;;;;;;8.03;1.90;;;14.90;99.90;;;;;;4920276;29;20638;-83
2024/02/16 10:40:34;;;;;;;7.33;1.97;;;14.90;99.90;;;;;;4918828;29;20244;-83
2024/02/16 10:43:05;;;;;;;13.67;2.03;;;14.90;99.90;;;;;;4919479;29;20220;-82
2024/02/16 10:45:35;;;;;;;5.10;1.80;;;14.70;99.90;;;;;;4919184;29;20585;-83
2024/02/16 10:48:03;;;;;;;4.27;2.00;;;14.60;99.90;;;;;;4918148;29;20210;-83
2024/02/16 10:50:30;;;;;;;5.80;1.70;;;14.60;99.90;;;;;;4919353;29;20221;-83
2024/02/16 10:52:59;;;;;;;5.80;2.00;;;14.50;99.90;;;;;;4919534;29;20216;-83
2024/02/16 10:55:26;;;;;;;6.13;1.90;;;14.40;99.90;;;;;;4919494;29;20265;-83
2024/02/16 10:57:55;;;;;;;6.47;2.40;;;14.30;99.90;;;;;;4919512;29;20308;-83
2024/02/16 11:00:24;;;;;;;4.27;2.10;;;14.30;99.90;;;;;;4919417;29;20282;-83
2024/02/16 11:02:58;;;;;;;3.97;2.30;;;14.30;99.90;;;;;;4919563;29;20622;-83
2024/02/16 11:05:36;;;;;;;6.00;2.40;;;14.20;99.90;;;;;;4919125;29;20723;-83
2024/02/16 11:08:04;;;;;;;5.57;2.07;;;14.20;99.90;;;;;;4919064;29;20225;-82
2024/02/16 11:10:32;;;;;;;5.23;2.57;;;14.10;99.90;;;;;;4917622;29;20209;-82
2024/02/16 11:13:04;;;;;;;7.10;2.37;;;14.10;99.90;;;;;;4919205;29;20209;-83
2024/02/16 11:15:34;;;;;;;5.83;2.20;;;14.10;99.90;;;;;;4918960;29;20238;-82
2024/02/16 11:18:02;;;;;;;6.93;2.30;;;14.20;99.90;;;;;;4919192;29;20676;-82
2024/02/16 11:20:29;;;;;;;6.20;2.50;;;14.30;99.90;;;;;;4919104;29;20293;-82
2024/02/16 11:23:07;;;;;;;4.73;2.50;;;14.40;99.90;;;;;;4918733;29;20296;-82
2024/02/16 11:25:34;;;;;;;5.90;3.10;;;14.40;99.90;;;;;;4918849;29;20237;-82
2024/02/16 11:28:02;;;;;;;3.27;2.17;;;14.30;99.90;;;;;;4918571;29;20244;-82
2024/02/16 11:30:29;;;;;;;7.53;3.07;;;14.10;99.90;;;;;;4918357;29;20213;-82
2024/02/16 11:32:58;;;;;;;2.87;1.97;;;14.00;99.90;;;;;;4918229;29;20212;-81
2024/02/16 11:35:24;;;;;;;5.10;2.90;;;14.00;99.90;;;;;;4918511;29;20729;-82
2024/02/16 11:37:51;;;;;;;4.20;2.23;;;13.90;99.90;;;;;;4917233;29;20220;-81
2024/02/16 11:40:19;;;;;;;5.47;2.93;;;13.90;99.90;;;;;;4918557;29;20216;-81
2024/02/16 11:42:46;;;;;;;6.07;2.50;;;13.90;99.90;;;;;;4918374;29;20210;-81
2024/02/16 11:45:15;;;;;;;7.57;2.97;;;13.90;99.90;;;;;;4918436;29;20593;-81
2024/02/16 11:47:43;;;;;;;5.73;2.70;;;14.00;99.90;;;;;;4918037;29;20232;-81
2024/02/16 11:50:15;;;;;;;4.73;2.40;;;14.10;99.90;;;;;;4919177;29;20309;-82
2024/02/16 11:52:42;;;;;;;7.83;2.53;;;14.10;99.90;;;;;;4919023;29;20573;-82
2024/02/16 11:55:10;;;;;;;7.33;2.60;;;14.20;99.90;;;;;;4917614;29;20665;-82
2024/02/16 11:57:38;;;;;;;3.83;2.63;;;14.20;99.90;;;;;;4918289;29;20210;-82
2024/02/16 12:00:10;;;;;;;7.60;2.70;;;14.30;99.90;;;;;;4918324;29;20276;-82
2024/02/16 12:02:37;;;;;;;5.03;2.50;;;14.30;99.90;;;;;;4917886;29;20644;-82
2024/02/16 12:05:05;;;;;;;3.67;2.30;;;14.40;99.90;;;;;;4918230;29;20234;-81
2024/02/16 12:07:34;;;;;;;5.47;2.40;;;14.20;99.90;;;;;;4919547;29;20569;-82
2024/02/16 12:10:02;;;;;;;6.13;2.40;;;14.20;99.90;;;;;;4918347;29;20216;-82
2024/02/16 12:12:29;;;;;;;7.80;2.60;;;14.20;99.90;;;;;;4917772;29;20214;-82
2024/02/16 12:14:56;;;;;;;5.33;1.70;;;14.20;99.90;;;;;;4917258;29;20305;-82
2024/02/16 12:17:23;;;;;;;7.83;2.37;;;14.10;99.90;;;;;;4920671;29;20216;-82
2024/02/16 12:19:53;;;;;;;2.93;2.20;;;13.90;99.90;;;;;;4920446;29;20631;-82
2024/02/16 12:22:21;;;;;;;2.63;1.67;;;13.80;99.90;;;;;;4919464;29;20216;-82
2024/02/16 12:24:50;;;;;;;2.70;1.73;;;13.80;99.90;;;;;;4917159;29;20229;-83
2024/02/16 12:27:18;;;;;;;2.47;1.90;;;13.80;99.90;;;;;;4918461;29;20213;-83
2024/02/16 12:29:45;;;;;;;3.00;1.90;;;13.80;99.90;;;;;;4918026;29;20304;-83
2024/02/16 12:32:12;;;;;;;2.07;1.50;;;13.60;99.90;;;;;;4918732;29;20240;-83
2024/02/16 12:34:39;;;;;;;2.37;1.60;;;13.60;99.90;;;;;;4919570;29;20623;-83
2024/02/16 12:37:08;;;;;;;4.97;1.70;;;13.60;99.90;;;;;;4918981;29;20297;-83
2024/02/16 12:39:35;;;;;;;3.77;1.87;;;13.70;99.90;;;;;;4918858;29;20227;-84
2024/02/16 12:42:04;;;;;;;2.23;1.40;;;13.60;99.90;;;;;;4918288;29;20657;-84
2024/02/16 12:44:31;;;;;;;1.60;1.40;;;13.70;99.90;;;;;;4917829;29;20320;-79
2024/02/16 12:46:58;;;;;;;3.50;1.50;;;13.70;99.90;;;;;;4918090;29;20224;-81
2024/02/16 12:49:25;;;;;;;5.90;3.77;;;13.70;99.90;;;;;;4917482;29;20213;-81
2024/02/16 12:51:54;;;;;;;2.70;1.60;;;13.70;99.90;;;;;;4917562;29;20636;-81
2024/02/16 12:54:21;;;;;;;5.73;1.90;;;13.70;99.90;;;;;;4917119;29;20229;-81
2024/02/16 12:56:49;;;;;;;2.33;1.70;;;13.80;99.90;;;;;;4917280;29;20210;-81
2024/02/16 12:59:17;;;;;;;2.53;1.53;;;13.80;99.90;;;;;;4915922;29;20692;-81
2024/02/16 13:01:45;;;;;;;2.00;1.70;;;13.80;99.90;;;;;;4919988;29;20296;-80
2024/02/16 13:04:13;;;;;;;2.70;1.73;;;13.80;99.90;;;;;;4919121;29;20213;-81
2024/02/16 13:06:39;;;;;;;2.10;1.60;;;13.80;99.90;;;;;;4919301;29;20301;-81
2024/02/16 13:09:08;;;;;;;3.03;1.90;;;13.80;99.90;;;;;;4922409;29;20318;-81
2024/02/16 13:11:35;;;;;;;3.20;1.80;;;13.80;99.90;;;;;;4923232;29;20227;-80
2024/02/16 13:14:02;;;;;;;3.17;1.73;;;13.90;99.90;;;;;;4922042;29;20229;-80
2024/02/16 13:16:31;;;;;;;2.17;1.63;;;13.80;99.90;;;;;;4923448;29;20252;-81
2024/02/16 13:18:57;;;;;;;2.70;1.90;;;13.90;99.90;;;;;;4924295;29;20636;-81
2024/02/16 13:21:25;;;;;;;2.77;2.13;;;14.00;99.90;;;;;;4925151;29;20328;-81
2024/02/16 13:23:52;;;;;;;3.33;2.17;;;14.10;99.90;;;;;;4924929;29;20257;-81
2024/02/16 13:26:19;;;;;;;3.50;2.17;;;14.10;99.90;;;;;;4921595;29;20614;-81
2024/02/16 13:28:45;;;;;;;3.87;1.80;;;14.20;99.90;;;;;;4921458;29;20304;-81
2024/02/16 13:31:13;;;;;;;6.40;2.33;;;14.30;99.90;;;;;;4923161;29;20302;-81
2024/02/16 13:33:41;;;;;;;6.07;2.10;;;14.20;99.90;;;;;;4922162;29;20244;-81
2024/02/16 13:36:09;;;;;;;3.60;2.30;;;14.20;99.90;;;;;;4922223;29;20260;-81
2024/02/16 13:38:36;;;;;;;2.33;1.70;;;14.20;99.90;;;;;;4923245;29;20213;-81
2024/02/16 13:41:04;;;;;;;3.20;1.80;;;14.20;99.90;;;;;;4922513;29;20210;-81
2024/02/16 13:43:31;;;;;;;3.10;1.80;;;14.20;99.90;;;;;;4921786;29;20220;-81
2024/02/16 13:45:59;;;;;;;4.30;2.20;;;14.40;99.90;;;;;;4921287;29;20325;-80
2024/02/16 13:48:26;;;;;;;5.43;2.90;;;14.50;99.90;;;;;;4921241;29;20216;-80
2024/02/16 13:50:55;;;;;;;3.63;2.57;;;14.40;99.90;;;;;;4922635;29;20209;-81
2024/02/16 13:53:23;;;;;;;3.67;2.67;;;14.60;99.90;;;;;;4921888;29;20273;-81
2024/02/16 13:55:50;;;;;;;3.63;2.47;;;14.60;99.90;;;;;;4930226;29;20244;-81
2024/02/16 13:58:17;;;;;;;7.27;3.27;;;14.70;99.90;;;;;;4938212;29;20248;-80
2024/02/16 14:00:44;;;;;;;5.60;3.07;;;14.80;99.90;;;;;;4936044;29;20205;-81
2024/02/16 14:03:13;;;;;;;5.27;3.03;;;15.00;99.90;;;;;;4938586;29;20220;-81
2024/02/16 14:05:40;;;;;;;4.57;3.37;;;15.10;99.90;;;;;;4928424;29;20237;-81
2024/02/16 14:08:10;;;;;;;6.33;3.60;;;15.00;99.90;;;;;;4923021;29;20209;-81
2024/02/16 14:10:38;;;;;;;6.07;3.90;;;15.00;99.90;;;;;;4921612;29;20245;-81
2024/02/16 14:13:05;;;;;;;7.90;3.87;;;15.00;99.90;;;;;;4920149;29;20212;-81
2024/02/16 14:15:32;;;;;;;5.47;3.63;;;15.20;99.90;;;;;;4920700;29;20280;-81
2024/02/16 14:17:59;;;;;;;5.87;3.40;;;15.20;99.90;;;;;;4920616;29;20218;-80
2024/02/16 14:20:26;;;;;;;4.73;3.23;;;15.30;99.90;;;;;;4919778;29;20640;-81
2024/02/16 14:22:53;;;;;;;4.33;2.67;;;15.30;99.90;;;;;;4921372;29;20301;-80
2024/02/16 14:25:21;;;;;;;4.67;2.80;;;15.20;99.90;;;;;;4922021;29;20600;-80
2024/02/16 14:27:48;;;;;;;3.90;1.87;;;15.20;99.90;;;;;;4921641;29;20308;-81
2024/02/16 14:30:15;;;;;;;3.20;1.90;;;15.20;99.90;;;;;;4921771;29;20260;-80
2024/02/16 14:32:42;;;;;;;3.00;1.70;;;15.20;99.90;;;;;;4923464;29;20241;-81
2024/02/16 14:35:10;;;;;;;2.37;1.83;;;15.00;99.90;;;;;;4921630;29;20242;-80
2024/02/16 14:37:38;;;;;;;1.50;1.30;;;14.90;99.90;;;;;;4920529;29;20649;-80
2024/02/16 14:40:09;;;;;;;3.17;1.80;;;14.80;99.90;;;;;;4920816;29;20253;-80
2024/02/16 14:42:39;;;;;;;1.43;1.23;;;14.80;99.90;;;;;;4921655;29;20210;-82
2024/02/16 14:45:09;;;;;;;2.20;1.30;;;14.90;99.90;;;;;;4923852;29;20237;-82
2024/02/16 14:47:36;;;;;;;2.17;1.80;;;15.00;99.90;;;;;;4922277;29;20252;-82
2024/02/16 14:50:07;;;;;;;2.10;1.53;;;15.20;99.90;;;;;;4923691;29;20209;-83
2024/02/16 14:52:34;;;;;;;1.20;1.10;;;15.20;99.90;;;;;;4921697;29;20217;-83
2024/02/16 14:55:01;;;;;;;2.23;1.30;;;15.20;99.90;;;;;;4922265;29;20247;-83
2024/02/16 14:57:28;;;;;;;2.30;1.47;;;15.10;99.90;;;;;;4921996;29;20616;-83
2024/02/16 14:59:57;;;;;;;1.77;1.20;;;15.00;99.90;;;;;;4922375;29;20209;-83
2024/02/16 15:02:25;;;;;;;2.00;1.30;;;15.00;99.90;;;;;;4920606;29;20305;-83
2024/02/16 15:04:53;;;;;;;2.27;1.43;;;15.00;99.90;;;;;;4920612;29;20708;-82
2024/02/16 15:07:20;;;;;;;1.50;1.27;;;14.90;99.90;;;;;;4921084;29;20277;-83
2024/02/16 15:09:47;;;;;;;1.60;1.10;;;15.00;99.90;;;;;;4920474;29;20288;-83
2024/02/16 15:12:18;;;;;;;1.40;1.10;;;14.90;99.90;;;;;;4920538;29;20300;-83
2024/02/16 15:14:45;;;;;;;1.27;1.00;;;15.00;99.90;;;;;;4920278;29;20248;-83
2024/02/16 15:17:14;;;;;;;2.20;1.30;;;15.20;99.90;;;;;;4921549;29;20300;-83
2024/02/16 15:19:41;;;;;;;1.87;1.40;;;15.20;99.90;;;;;;4920744;29;20680;-83
2024/02/16 15:22:08;;;;;;;3.50;1.47;;;15.20;99.90;;;;;;4921244;29;20734;-83
2024/02/16 15:24:35;;;;;;;1.53;1.00;;;15.30;99.90;;;;;;4920856;29;20261;-83
2024/02/16 15:27:03;;;;;;;3.73;1.17;;;15.20;99.90;;;;;;4923052;29;20300;-83
2024/02/16 15:29:30;;;;;;;1.47;1.13;;;15.30;99.90;;;;;;4923816;29;20304;-83
2024/02/16 15:31:58;;;;;;;1.20;1.10;;;15.30;99.90;;;;;;4922447;29;20661;-83
2024/02/16 15:34:27;;;;;;;1.90;1.27;;;15.50;99.90;;;;;;4921606;29;20210;-83
2024/02/16 15:36:55;;;;;;;3.97;0.93;;;15.50;99.90;;;;;;4919363;29;20568;-82
2024/02/16 15:39:21;;;;;;;1.97;1.20;;;15.30;99.90;;;;;;4919483;29;20229;-83
2024/02/16 15:41:50;;;;;;;3.50;1.37;;;15.30;99.90;;;;;;4919936;29;20682;-82
2024/02/16 15:44:17;;;;;;;1.20;1.00;;;15.10;99.90;;;;;;4919395;29;20289;-82
2024/02/16 15:46:44;;;;;;;3.07;1.20;;;15.00;99.90;;;;;;4919727;29;20220;-81
2024/02/16 15:49:11;;;;;;;2.00;1.27;;;15.00;99.90;;;;;;4918386;29;20296;-81
2024/02/16 15:51:39;;;;;;;2.50;1.30;;;15.00;99.90;;;;;;4917851;29;20665;-81
2024/02/16 15:54:06;;;;;;;1.63;1.27;;;15.00;99.90;;;;;;4917929;29;20241;-81
2024/02/16 15:56:33;;;;;;;2.13;1.40;;;14.70;99.90;;;;;;4918287;29;20328;-81
2024/02/16 15:59:01;;;;;;;4.40;1.50;;;14.60;99.90;;;;;;4918036;29;20248;-81
2024/02/16 16:01:28;;;;;;;2.63;1.20;;;14.60;99.90;;;;;;4917915;29;20209;-82
2024/02/16 16:03:55;;;;;;;3.37;1.50;;;14.60;99.90;;;;;;4917804;29;20296;-81
2024/02/16 16:06:22;;;;;;;2.07;1.40;;;14.70;99.90;;;;;;4918204;29;20226;-81
2024/02/16 16:08:51;;;;;;;2.73;1.67;;;14.80;99.90;;;;;;4916968;29;20562;-81
2024/02/16 16:11:18;;;;;;;2.27;1.50;;;14.70;99.90;;;;;;4919037;29;20225;-81
2024/02/16 16:13:45;;;;;;;1.77;1.50;;;14.70;99.90;;;;;;4918722;29;20238;-82
2024/02/16 16:16:12;;;;;;;1.50;1.27;;;14.70;99.90;;;;;;4918871;29;20241;-81
2024/02/16 16:18:39;;;;;;;2.00;1.37;;;14.70;99.90;;;;;;4920545;29;20292;-82
2024/02/16 16:21:06;;;;;;;1.57;1.37;;;14.80;99.90;;;;;;4920093;29;20269;-82
2024/02/16 16:23:35;;;;;;;1.33;1.23;;;14.80;99.90;;;;;;4918637;29;20308;-82
2024/02/16 16:26:04;;;;;;;3.07;1.60;;;14.80;99.90;;;;;;4918256;29;20233;-82
2024/02/16 16:28:31;;;;;;;2.57;1.50;;;14.70;99.90;;;;;;4918629;29;20244;-81
2024/02/16 16:30:58;;;;;;;1.23;1.13;;;14.60;99.90;;;;;;4903264;29;20206;-82
2024/02/16 16:33:25;;;;;;;2.03;1.40;;;14.50;99.90;;;;;;4918994;29;20216;-82
2024/02/16 16:35:52;;;;;;;3.70;1.30;;;14.60;99.90;;;;;;4918322;29;20752;-82
2024/02/16 16:38:19;;;;;;;2.83;2.33;;;14.60;99.90;;;;;;4922162;29;20288;-82
2024/02/16 16:40:46;;;;;;;2.50;1.27;;;14.50;99.90;;;;;;4920630;29;20765;-82
2024/02/16 16:43:14;;;;;;;4.13;1.40;;;14.50;99.90;;;;;;4920602;29;20297;-82
2024/02/16 16:45:41;;;;;;;1.80;1.40;;;14.50;99.90;;;;;;4918902;29;20327;-82
2024/02/16 16:48:09;;;;;;;2.23;1.27;;;14.60;99.90;;;;;;4918921;29;20304;-82
2024/02/16 16:50:36;;;;;;;1.80;1.40;;;14.70;99.90;;;;;;4918172;29;20634;-82
2024/02/16 16:53:04;;;;;;;2.77;1.70;;;14.70;99.90;;;;;;4918613;29;20217;-82
2024/02/16 16:55:31;;;;;;;4.90;1.60;;;14.70;99.90;;;;;;4918711;29;20333;-82
2024/02/16 16:57:58;;;;;;;2.00;1.50;;;14.50;99.90;;;;;;4918645;29;20237;-82
2024/02/16 17:00:27;;;;;;;1.73;1.33;;;14.40;99.90;;;;;;4918436;29;20713;-82
2024/02/16 17:02:54;;;;;;;2.10;1.50;;;14.30;99.90;;;;;;4918373;29;20205;-82
2024/02/16 17:05:21;;;;;;;2.40;1.43;;;14.20;99.90;;;;;;4918710;29;20240;-82
2024/02/16 17:07:48;;;;;;;1.90;1.43;;;14.10;99.90;;;;;;4917884;29;20296;-82
2024/02/16 17:10:15;;;;;;;2.80;1.60;;;13.90;99.90;;;;;;4919602;29;20269;-81
2024/02/16 17:12:43;;;;;;;2.17;1.67;;;13.90;99.90;;;;;;4918725;29;20576;-81
2024/02/16 17:15:12;;;;;;;4.57;1.60;;;13.80;99.90;;;;;;4920002;29;20272;-82
2024/02/16 17:17:48;;;;;;;3.60;1.60;;;13.80;99.90;;;;;;4918530;29;20216;-82
2024/02/16 17:20:15;;;;;;;3.87;1.93;;;13.80;99.90;;;;;;4917621;29;20217;-81
2024/02/16 17:22:41;;;;;;;2.73;1.77;;;13.80;99.90;;;;;;4922830;29;20240;-82
2024/02/16 17:25:09;;;;;;;4.20;1.87;;;13.70;99.90;;;;;;4923296;29;20784;-82
2024/02/16 17:27:36;;;;;;;2.47;2.00;;;13.70;99.90;;;;;;4923249;29;20213;-81
2024/02/16 17:30:03;;;;;;;5.03;1.97;;;13.60;99.90;;;;;;4922701;29;20701;-82
2024/02/16 17:32:30;;;;;;;2.13;1.63;;;13.60;99.90;;;;;;4922757;29;20292;-81
2024/02/16 17:34:58;;;;;;;3.60;1.90;;;13.60;99.90;;;;;;4923829;29;20257;-83
2024/02/16 17:37:25;;;;;;;3.57;2.20;;;13.60;99.90;;;;;;4923603;29;20601;-83
2024/02/16 17:39:52;;;;;;;2.47;1.90;;;13.60;99.90;;;;;;4922555;29;20244;-83
2024/02/16 17:42:20;;;;;;;2.90;1.93;;;13.60;99.90;;;;;;4923070;29;20572;-83
2024/02/16 17:44:47;;;;;;;3.37;2.17;;;13.60;99.90;;;;;;4918670;29;20234;-84
2024/02/16 17:47:14;;;;;;;4.00;2.80;;;13.60;99.90;;;;;;4918723;29;20278;-84
2024/02/16 17:49:41;;;;;;;3.27;2.07;;;13.60;99.90;;;;;;4918160;29;20209;-84
2024/02/16 17:52:10;;;;;;;5.33;2.20;;;13.50;99.90;;;;;;4918374;29;20245;-83
2024/02/16 17:54:40;;;;;;;2.70;2.00;;;13.40;99.90;;;;;;4921606;29;20230;-84
2024/02/16 17:57:07;;;;;;;4.20;2.20;;;13.30;99.90;;;;;;4922666;29;20669;-83
2024/02/16 17:59:34;;;;;;;6.33;2.40;;;13.20;99.90;;;;;;4921999;29;20664;-81
2024/02/16 18:02:02;;;;;;;3.87;2.93;;;13.20;99.90;;;;;;4920856;29;20306;-84
2024/02/16 18:04:31;;;;;;;4.13;2.67;;;13.10;99.90;;;;;;4921438;29;20317;-80
2024/02/16 18:06:58;;;;;;;5.67;3.20;;;13.10;99.90;;;;;;4921379;29;20214;-82
2024/02/16 18:09:26;;;;;;;5.13;3.10;;;13.00;99.90;;;;;;4921098;29;20273;-82
2024/02/16 18:11:53;;;;;;;5.47;3.50;;;13.00;99.90;;;;;;4921003;29;20244;-83
2024/02/16 18:14:20;;;;;;;5.20;3.60;;;13.00;99.90;;;;;;4920553;29;20554;-83
2024/02/16 18:16:47;;;;;;;4.50;2.90;;;13.10;99.90;;;;;;4920872;29;20257;-83
2024/02/16 18:19:15;;;;;;;3.67;2.90;;;13.10;99.90;;;;;;4920558;29;20625;-83
2024/02/16 18:21:42;;;;;;;8.77;3.30;;;13.20;99.90;;;;;;4920804;29;20301;-83
2024/02/16 18:24:09;;;;;;;4.73;2.83;;;13.30;99.90;;;;;;4920317;29;20296;-83
2024/02/16 18:26:37;;;;;;;3.93;2.53;;;13.30;99.90;;;;;;4919795;29;20248;-84
2024/02/16 18:29:04;;;;;;;4.67;3.00;;;13.30;99.90;;;;;;4919773;29;20310;-84
2024/02/16 18:31:35;;;;;;;4.40;2.97;;;13.30;99.90;;;;;;4920528;29;20217;-83
2024/02/16 18:34:02;;;;;;;5.53;3.40;;;13.30;99.90;;;;;;4920676;29;20292;-83
2024/02/16 18:36:29;;;;;;;7.10;4.10;;;13.30;99.90;;;;;;4924896;29;20252;-84
2024/02/16 18:38:56;;;;;;;5.10;3.30;;;13.30;99.90;;;;;;4940135;29;20220;-82
2024/02/16 18:41:23;;;;;;;4.03;2.60;;;13.20;99.90;;;;;;4939444;29;20232;-82
2024/02/16 18:43:52;;;;;;;7.17;4.30;;;13.10;99.90;;;;;;4937928;29;20209;-83
2024/02/16 18:46:19;;;;;;;9.87;3.33;;;12.90;99.90;;;;;;4925294;29;20231;-83
2024/02/16 18:48:46;;;;;;;7.97;3.20;;;12.90;99.90;;;;;;4921922;29;20244;-83
2024/02/16 18:51:12;;;;;;;4.70;3.03;;;12.70;99.90;;;;;;4922160;29;20215;-83
2024/02/16 18:53:41;;;;;;;5.47;2.87;;;12.80;99.90;;;;;;4919980;29;20625;-83
2024/02/16 18:56:08;;;;;;;5.80;2.90;;;12.80;99.90;;;;;;4920031;29;20241;-82
2024/02/16 18:58:35;;;;;;;8.17;3.47;;;12.90;99.90;;;;;;4920630;29;20214;-83
2024/02/16 19:01:03;;;;;;;10.50;4.23;;;12.80;99.90;;;;;;4920512;29;20274;-83
2024/02/16 19:03:30;;;;;;;5.20;3.53;;;12.90;99.90;;;;;;4919900;29;20220;-83
2024/02/16 19:05:58;;;;;;;6.77;3.90;;;13.10;99.90;;;;;;4919127;29;20697;-82
2024/02/16 19:08:25;;;;;;;9.00;4.23;;;13.20;99.90;;;;;;4919293;29;20245;-82
2024/02/16 19:10:53;;;;;;;6.27;3.80;;;13.20;99.90;;;;;;4919382;29;20212;-83
2024/02/16 19:13:19;;;;;;;7.23;3.90;;;13.20;99.90;;;;;;4919785;29;20202;-82
2024/02/16 19:15:46;;;;;;;5.70;3.37;;;13.20;99.90;;;;;;4920715;29;20769;-82
2024/02/16 19:18:15;;;;;;;8.93;4.33;;;13.30;99.90;;;;;;4922158;29;20298;-82
2024/02/16 19:20:42;;;;;;;7.20;4.00;;;13.30;99.90;;;;;;4919696;29;20732;-82
2024/02/16 19:23:12;;;;;;;5.53;3.50;;;13.30;99.90;;;;;;4921315;29;20214;-83
2024/02/16 19:25:39;;;;;;;5.07;3.00;;;13.10;99.90;;;;;;4919424;29;20232;-82
2024/02/16 19:28:06;;;;;;;4.00;2.60;;;13.10;99.90;;;;;;4919079;29;20646;-82
2024/02/16 19:30:33;;;;;;;5.33;2.57;;;12.90;99.90;;;;;;4919343;29;20300;-82
2024/02/16 19:33:00;;;;;;;7.00;2.10;;;12.80;99.90;;;;;;4918916;29;20626;-81
2024/02/16 19:35:28;;;;;;;6.27;2.30;;;12.80;99.90;;;;;;4918815;29;20253;-83
2024/02/16 19:37:55;;;;;;;4.83;2.53;;;12.80;99.90;;;;;;4918865;29;20592;-82
2024/02/16 19:40:22;;;;;;;4.53;2.10;;;12.80;99.90;;;;;;4918750;29;20304;-83
2024/02/16 19:42:49;;;;;;;9.70;2.40;;;12.80;99.90;;;;;;4918598;29;20671;-83
2024/02/16 19:45:18;;;;;;;4.17;2.07;;;12.80;99.90;;;;;;4918432;29;20259;-83
2024/02/16 19:47:45;;;;;;;4.20;2.03;;;12.60;99.90;;;;;;4918949;29;20217;-83
2024/02/16 19:50:13;;;;;;;3.50;1.73;;;12.60;99.90;;;;;;4918844;29;20634;-83
2024/02/16 19:52:41;;;;;;;2.73;1.73;;;12.60;99.90;;;;;;4918918;29;20300;-83
2024/02/16 19:55:09;;;;;;;4.93;2.53;;;12.60;99.90;;;;;;4917184;29;20228;-83
2024/02/16 19:57:36;;;;;;;7.23;2.63;;;12.70;99.90;;;;;;4918522;29;20249;-83
2024/02/16 20:00:04;;;;;;;7.83;2.40;;;12.50;99.90;;;;;;4919356;29;20720;-82
2024/02/16 20:02:30;;;;;;;5.43;2.63;;;12.40;99.90;;;;;;4918973;29;20209;-82
2024/02/16 20:04:57;;;;;;;8.00;2.63;;;12.40;99.90;;;;;;4918104;29;20229;-82
2024/02/16 20:07:27;;;;;;;6.00;2.40;;;12.40;99.90;;;;;;4917919;29;20205;-82
2024/02/16 20:09:56;;;;;;;5.47;2.53;;;12.30;99.90;;;;;;4918411;29;20649;-83
2024/02/16 20:12:24;;;;;;;5.73;3.10;;;12.20;99.90;;;;;;4917898;29;20205;-83
2024/02/16 20:14:51;;;;;;;6.03;2.50;;;12.10;99.90;;;;;;4919020;29;20617;-83
2024/02/16 20:17:18;;;;;;;6.37;3.40;;;12.00;99.90;;;;;;4917390;29;20273;-83
2024/02/16 20:19:45;;;;;;;4.07;2.33;;;12.00;99.90;;;;;;4917819;29;20245;-83
2024/02/16 20:22:11;;;;;;;9.97;3.33;;;12.10;99.90;;;;;;4918317;29;20245;-83
2024/02/16 20:24:38;;;;;;;6.87;2.13;;;12.10;99.90;;;;;;4918091;29;20316;-82
2024/02/16 20:27:07;;;;;;;4.23;1.87;;;12.00;99.90;;;;;;4917830;29;20296;-83
2024/02/16 20:29:34;;;;;;;7.87;1.90;;;11.90;99.90;;;;;;4917782;29;20260;-83
2024/02/16 20:32:02;;;;;;;6.47;1.53;;;11.80;99.90;;;;;;4940823;23;20309;-69
2024/02/16 20:34:28;;;;;;;6.70;1.67;;;11.60;99.90;;;;;;4933975;29;20216;-69
2024/02/16 20:36:55;;;;;;;4.07;1.50;;;11.60;99.90;;;;;;4916499;29;20237;-69
2024/02/16 20:39:22;;;;;;;4.97;1.40;;;11.60;99.90;;;;;;4917068;29;20216;-69
2024/02/16 20:41:49;;;;;;;6.17;1.53;;;11.50;99.90;;;;;;4916956;29;20214;-69
2024/02/16 20:44:17;;;;;;;4.73;1.87;;;11.50;99.90;;;;;;4916801;29;20241;-70
2024/02/16 20:46:44;;;;;;;3.07;1.33;;;11.40;99.90;;;;;;4916759;29;20669;-70
2024/02/16 20:49:11;;;;;;;1.93;1.30;;;11.40;99.90;;;;;;4916730;29;20300;-69
2024/02/16 20:51:37;;;;;;;6.50;1.70;;;11.30;99.90;;;;;;4917013;29;20212;-70
2024/02/16 20:54:04;;;;;;;6.23;1.63;;;11.20;99.90;;;;;;4916470;29;20213;-70
2024/02/16 20:56:31;;;;;;;2.93;1.37;;;11.10;99.90;;;;;;4916622;29;20276;-70
2024/02/16 20:58:58;;;;;;;6.00;1.10;;;11.00;99.90;;;;;;4916841;29;20240;-70
2024/02/16 21:01:26;;;;;;;3.97;1.20;;;11.00;99.90;;;;;;4916747;29;20223;-70
2024/02/16 21:03:53;;;;;;;5.33;1.30;;;10.90;99.90;;;;;;4916664;29;20220;-70
2024/02/16 21:06:21;;;;;;;4.20;1.57;;;10.70;99.90;;;;;;4916540;29;20244;-71
2024/02/16 21:08:48;;;;;;;4.60;1.20;;;10.60;99.90;;;;;;4916854;29;20213;-70
2024/02/16 21:11:16;;;;;;;3.03;1.37;;;10.50;99.90;;;;;;4916565;29;20305;-70
2024/02/16 21:13:44;;;;;;;4.20;1.27;;;10.40;99.90;;;;;;4916457;29;20206;-72
2024/02/16 21:16:10;;;;;;;4.17;1.17;;;10.40;99.90;;;;;;4916587;29;20263;-71
2024/02/16 21:18:39;;;;;;;5.37;1.40;;;10.40;99.90;;;;;;4916868;29;20236;-69